sensor_id;sensor_type;location;lat;lon;timestamp;temperature;humidity
17774;DHT22;9011;33.236;-97.118;2022-12-29T00:01:01;18.20;99.90
17774;DHT22;9011;33.236;-97.118;2022-12-29T00:03:30;18.20;99.90
17774;DHT22;9011;33.236;-97.118;2022-12-29T00:05:58;18.20;99.90
17774;DHT22;9011;33.236;-97.118;2022-12-29T00:08:30;18.20;99.90
17774;DHT22;9011;33.236;-97.118;2022-12-29T00:11:07;18.10;99.90
17774;DHT22;9011;33.236;-97.118;2022-12-29T00:13:36;18.00;99.90
17774;DHT22;9011;33.236;-97.118;2022-12-29T00:16:22;18.10;99.90
17774;DHT22;9011;33.236;-97.118;2022-12-29T00:18:50;17.90;99.90
17774;DHT22;9011;33.236;-97.118;2022-12-29T00:21:21;17.90;99.90
17774;DHT22;9011;33.236;-97.118;2022-12-29T00:24:12;17.90;99.90
17774;DHT22;9011;33.236;-97.118;2022-12-29T00:27:07;17.90;99.90
17774;DHT22;9011;33.236;-97.118;2022-12-29T00:30:09;17.90;99.90
17774;DHT22;9011;33.236;-97.118;2022-12-29T00:32:55;17.90;99.90
17774;DHT22;9011;33.236;-97.118;2022-12-29T00:35:45;17.90;99.90
17774;DHT22;9011;33.236;-97.118;2022-12-29T00:38:14;17.90;99.90
17774;DHT22;9011;33.236;-97.118;2022-12-29T00:41:01;17.90;99.90
17774;DHT22;9011;33.236;-97.118;2022-12-29T00:43:47;17.90;99.90
17774;DHT22;9011;33.236;-97.118;2022-12-29T00:46:34;17.90;99.90
17774;DHT22;9011;33.236;-97.118;2022-12-29T00:49:03;18.00;99.90
17774;DHT22;9011;33.236;-97.118;2022-12-29T00:51:49;18.00;99.90
17774;DHT22;9011;33.236;-97.118;2022-12-29T00:54:18;18.00;99.90
17774;DHT22;9011;33.236;-97.118;2022-12-29T00:56:49;18.00;99.90
17774;DHT22;9011;33.236;-97.118;2022-12-29T00:59:19;17.90;99.90
17774;DHT22;9011;33.236;-97.118;2022-12-29T01:01:48;18.00;99.90
17774;DHT22;9011;33.236;-97.118;2022-12-29T01:04:16;18.00;99.90
17774;DHT22;9011;33.236;-97.118;2022-12-29T01:06:45;18.00;99.90
17774;DHT22;9011;33.236;-97.118;2022-12-29T01:09:14;18.00;99.90
17774;DHT22;9011;33.236;-97.118;2022-12-29T01:12:01;18.00;99.90
17774;DHT22;9011;33.236;-97.118;2022-12-29T01:14:30;18.00;99.90
17774;DHT22;9011;33.236;-97.118;2022-12-29T01:16:59;18.00;99.90
17774;DHT22;9011;33.236;-97.118;2022-12-29T01:19:27;18.00;99.90
17774;DHT22;9011;33.236;-97.118;2022-12-29T01:21:56;18.00;99.90
17774;DHT22;9011;33.236;-97.118;2022-12-29T01:24:25;18.10;99.90
17774;DHT22;9011;33.236;-97.118;2022-12-29T01:26:53;18.20;99.90
17774;DHT22;9011;33.236;-97.118;2022-12-29T01:29:24;18.20;99.90
17774;DHT22;9011;33.236;-97.118;2022-12-29T01:31:52;18.20;99.90
17774;DHT22;9011;33.236;-97.118;2022-12-29T01:34:21;18.20;99.90
17774;DHT22;9011;33.236;-97.118;2022-12-29T01:36:49;18.20;99.90
17774;DHT22;9011;33.236;-97.118;2022-12-29T01:39:18;18.20;99.90
17774;DHT22;9011;33.236;-97.118;2022-12-29T01:41:47;18.20;99.90
17774;DHT22;9011;33.236;-97.118;2022-12-29T01:44:52;18.20;99.90
17774;DHT22;9011;33.236;-97.118;2022-12-29T01:47:30;18.20;99.90
17774;DHT22;9011;33.236;-97.118;2022-12-29T01:50:04;18.20;99.90
17774;DHT22;9011;33.236;-97.118;2022-12-29T01:52:36;18.10;99.90
17774;DHT22;9011;33.236;-97.118;2022-12-29T01:55:06;18.10;99.90
17774;DHT22;9011;33.236;-97.118;2022-12-29T01:57:39;18.10;99.90
17774;DHT22;9011;33.236;-97.118;2022-12-29T02:00:12;18.00;99.90
17774;DHT22;9011;33.236;-97.118;2022-12-29T02:02:43;18.00;99.90
17774;DHT22;9011;33.236;-97.118;2022-12-29T02:05:18;18.00;99.90
17774;DHT22;9011;33.236;-97.118;2022-12-29T02:07:51;18.00;99.90
17774;DHT22;9011;33.236;-97.118;2022-12-29T02:10:21;18.00;99.90
17774;DHT22;9011;33.236;-97.118;2022-12-29T02:12:51;17.90;99.90
17774;DHT22;9011;33.236;-97.118;2022-12-29T02:15:27;17.90;99.90
17774;DHT22;9011;33.236;-97.118;2022-12-29T02:18:16;17.90;99.90
17774;DHT22;9011;33.236;-97.118;2022-12-29T02:21:28;17.80;99.90
17774;DHT22;9011;33.236;-97.118;2022-12-29T02:27:31;17.60;99.90
17774;DHT22;9011;33.236;-97.118;2022-12-29T02:30:11;17.60;99.90
17774;DHT22;9011;33.236;-97.118;2022-12-29T02:32:50;17.60;99.90
17774;DHT22;9011;33.236;-97.118;2022-12-29T02:35:28;17.50;99.90
17774;DHT22;9011;33.236;-97.118;2022-12-29T02:38:06;17.40;99.90
17774;DHT22;9011;33.236;-97.118;2022-12-29T02:40:45;17.30;99.90
17774;DHT22;9011;33.236;-97.118;2022-12-29T02:43:23;17.20;99.90
17774;DHT22;9011;33.236;-97.118;2022-12-29T02:45:55;17.20;99.90
17774;DHT22;9011;33.236;-97.118;2022-12-29T02:48:31;17.20;99.90
17774;DHT22;9011;33.236;-97.118;2022-12-29T02:51:03;17.10;99.90
17774;DHT22;9011;33.236;-97.118;2022-12-29T02:53:34;17.10;99.90
17774;DHT22;9011;33.236;-97.118;2022-12-29T02:56:20;17.10;99.90
17774;DHT22;9011;33.236;-97.118;2022-12-29T02:58:49;17.10;99.90
17774;DHT22;9011;33.236;-97.118;2022-12-29T03:01:26;17.10;99.90
17774;DHT22;9011;33.236;-97.118;2022-12-29T03:04:19;17.00;99.90
17774;DHT22;9011;33.236;-97.118;2022-12-29T03:06:56;17.00;99.90
17774;DHT22;9011;33.236;-97.118;2022-12-29T03:09:34;16.90;99.90
17774;DHT22;9011;33.236;-97.118;2022-12-29T03:12:12;16.80;99.90
17774;DHT22;9011;33.236;-97.118;2022-12-29T03:14:53;16.80;99.90
17774;DHT22;9011;33.236;-97.118;2022-12-29T03:17:48;16.80;99.90
17774;DHT22;9011;33.236;-97.118;2022-12-29T03:20:25;16.70;99.90
17774;DHT22;9011;33.236;-97.118;2022-12-29T03:22:59;16.70;99.90
17774;DHT22;9011;33.236;-97.118;2022-12-29T03:25:31;16.60;99.90
17774;DHT22;9011;33.236;-97.118;2022-12-29T03:28:04;16.50;99.90
17774;DHT22;9011;33.236;-97.118;2022-12-29T03:30:36;16.50;99.90
17774;DHT22;9011;33.236;-97.118;2022-12-29T03:33:09;16.50;99.90
17774;DHT22;9011;33.236;-97.118;2022-12-29T03:35:42;16.50;99.90
17774;DHT22;9011;33.236;-97.118;2022-12-29T03:38:16;16.40;99.90
17774;DHT22;9011;33.236;-97.118;2022-12-29T03:40:48;16.40;99.90
17774;DHT22;9011;33.236;-97.118;2022-12-29T03:43:18;16.40;99.90
17774;DHT22;9011;33.236;-97.118;2022-12-29T03:45:47;16.40;99.90
17774;DHT22;9011;33.236;-97.118;2022-12-29T03:48:16;16.30;99.90
17774;DHT22;9011;33.236;-97.118;2022-12-29T03:50:46;16.30;99.90
17774;DHT22;9011;33.236;-97.118;2022-12-29T03:53:15;16.30;99.90
17774;DHT22;9011;33.236;-97.118;2022-12-29T03:55:43;16.30;99.90
17774;DHT22;9011;33.236;-97.118;2022-12-29T03:58:12;16.40;99.90
17774;DHT22;9011;33.236;-97.118;2022-12-29T04:00:41;16.40;99.90
17774;DHT22;9011;33.236;-97.118;2022-12-29T04:03:09;16.40;99.90
17774;DHT22;9011;33.236;-97.118;2022-12-29T04:05:38;16.40;99.90
17774;DHT22;9011;33.236;-97.118;2022-12-29T04:08:08;16.40;99.90
17774;DHT22;9011;33.236;-97.118;2022-12-29T04:10:37;16.50;99.90
17774;DHT22;9011;33.236;-97.118;2022-12-29T04:13:05;16.50;99.90
17774;DHT22;9011;33.236;-97.118;2022-12-29T04:15:34;16.50;99.90
17774;DHT22;9011;33.236;-97.118;2022-12-29T04:18:02;16.50;99.90
17774;DHT22;9011;33.236;-97.118;2022-12-29T04:20:31;16.50;99.90
17774;DHT22;9011;33.236;-97.118;2022-12-29T04:23:18;16.50;99.90
17774;DHT22;9011;33.236;-97.118;2022-12-29T04:25:47;16.60;99.90
17774;DHT22;9011;33.236;-97.118;2022-12-29T04:28:16;16.60;99.90
17774;DHT22;9011;33.236;-97.118;2022-12-29T04:30:46;16.60;99.90
17774;DHT22;9011;33.236;-97.118;2022-12-29T04:33:14;16.70;99.90
17774;DHT22;9011;33.236;-97.118;2022-12-29T04:35:43;16.70;99.90
17774;DHT22;9011;33.236;-97.118;2022-12-29T04:38:12;16.80;99.90
17774;DHT22;9011;33.236;-97.118;2022-12-29T04:40:43;16.80;99.90
17774;DHT22;9011;33.236;-97.118;2022-12-29T04:43:13;16.80;99.90
17774;DHT22;9011;33.236;-97.118;2022-12-29T04:45:44;16.80;99.90
17774;DHT22;9011;33.236;-97.118;2022-12-29T04:48:13;16.90;99.90
17774;DHT22;9011;33.236;-97.118;2022-12-29T04:50:43;16.90;99.90
17774;DHT22;9011;33.236;-97.118;2022-12-29T04:53:12;16.90;99.90
17774;DHT22;9011;33.236;-97.118;2022-12-29T04:55:42;16.90;99.90
17774;DHT22;9011;33.236;-97.118;2022-12-29T04:58:11;16.90;99.90
17774;DHT22;9011;33.236;-97.118;2022-12-29T05:00:39;16.90;99.90
17774;DHT22;9011;33.236;-97.118;2022-12-29T05:03:08;16.90;99.90
17774;DHT22;9011;33.236;-97.118;2022-12-29T05:05:37;16.90;99.90
17774;DHT22;9011;33.236;-97.118;2022-12-29T05:08:05;16.90;99.90
17774;DHT22;9011;33.236;-97.118;2022-12-29T05:10:34;16.90;99.90
17774;DHT22;9011;33.236;-97.118;2022-12-29T05:13:04;16.90;99.90
17774;DHT22;9011;33.236;-97.118;2022-12-29T05:15:32;16.80;99.90
17774;DHT22;9011;33.236;-97.118;2022-12-29T05:18:01;16.90;99.90
17774;DHT22;9011;33.236;-97.118;2022-12-29T05:20:29;16.80;99.90
17774;DHT22;9011;33.236;-97.118;2022-12-29T05:22:58;16.90;99.90
17774;DHT22;9011;33.236;-97.118;2022-12-29T05:25:30;16.80;99.90
17774;DHT22;9011;33.236;-97.118;2022-12-29T05:27:58;16.80;99.90
17774;DHT22;9011;33.236;-97.118;2022-12-29T05:30:28;16.80;99.90
17774;DHT22;9011;33.236;-97.118;2022-12-29T05:32:57;16.80;99.90
17774;DHT22;9011;33.236;-97.118;2022-12-29T05:35:25;16.80;99.90
17774;DHT22;9011;33.236;-97.118;2022-12-29T05:37:54;16.90;99.90
17774;DHT22;9011;33.236;-97.118;2022-12-29T05:40:22;16.90;99.90
17774;DHT22;9011;33.236;-97.118;2022-12-29T05:42:51;16.80;99.90
17774;DHT22;9011;33.236;-97.118;2022-12-29T05:45:20;16.80;99.90
17774;DHT22;9011;33.236;-97.118;2022-12-29T05:47:50;16.90;99.90
17774;DHT22;9011;33.236;-97.118;2022-12-29T05:50:19;16.90;99.90
17774;DHT22;9011;33.236;-97.118;2022-12-29T05:52:47;16.90;99.90
17774;DHT22;9011;33.236;-97.118;2022-12-29T05:55:17;16.90;99.90
17774;DHT22;9011;33.236;-97.118;2022-12-29T05:57:46;16.90;99.90
17774;DHT22;9011;33.236;-97.118;2022-12-29T06:00:15;16.90;99.90
17774;DHT22;9011;33.236;-97.118;2022-12-29T06:02:46;16.90;99.90
17774;DHT22;9011;33.236;-97.118;2022-12-29T06:05:17;16.90;99.90
17774;DHT22;9011;33.236;-97.118;2022-12-29T06:07:45;16.90;99.90
17774;DHT22;9011;33.236;-97.118;2022-12-29T06:10:14;16.80;99.90
17774;DHT22;9011;33.236;-97.118;2022-12-29T06:12:42;16.90;99.90
17774;DHT22;9011;33.236;-97.118;2022-12-29T06:15:11;16.90;99.90
17774;DHT22;9011;33.236;-97.118;2022-12-29T06:17:40;16.80;99.90
17774;DHT22;9011;33.236;-97.118;2022-12-29T06:20:10;16.80;99.90
17774;DHT22;9011;33.236;-97.118;2022-12-29T06:22:40;16.80;99.90
17774;DHT22;9011;33.236;-97.118;2022-12-29T06:25:09;16.80;99.90
17774;DHT22;9011;33.236;-97.118;2022-12-29T06:27:37;16.70;99.90
17774;DHT22;9011;33.236;-97.118;2022-12-29T06:30:07;16.70;99.90
17774;DHT22;9011;33.236;-97.118;2022-12-29T06:32:36;16.70;99.90
17774;DHT22;9011;33.236;-97.118;2022-12-29T06:35:07;16.70;99.90
17774;DHT22;9011;33.236;-97.118;2022-12-29T06:37:36;16.60;99.90
17774;DHT22;9011;33.236;-97.118;2022-12-29T06:40:08;16.60;99.90
17774;DHT22;9011;33.236;-97.118;2022-12-29T06:42:38;16.60;99.90
17774;DHT22;9011;33.236;-97.118;2022-12-29T06:45:07;16.60;99.90
17774;DHT22;9011;33.236;-97.118;2022-12-29T06:47:36;16.50;99.90
17774;DHT22;9011;33.236;-97.118;2022-12-29T06:50:05;16.60;99.90
17774;DHT22;9011;33.236;-97.118;2022-12-29T06:52:34;16.50;99.90
17774;DHT22;9011;33.236;-97.118;2022-12-29T06:55:03;16.50;99.90
17774;DHT22;9011;33.236;-97.118;2022-12-29T06:57:33;16.50;99.90
17774;DHT22;9011;33.236;-97.118;2022-12-29T07:00:02;16.50;99.90
17774;DHT22;9011;33.236;-97.118;2022-12-29T07:02:31;16.50;99.90
17774;DHT22;9011;33.236;-97.118;2022-12-29T07:05:00;16.50;99.90
17774;DHT22;9011;33.236;-97.118;2022-12-29T07:07:30;16.50;99.90
17774;DHT22;9011;33.236;-97.118;2022-12-29T07:09:59;16.50;99.90
17774;DHT22;9011;33.236;-97.118;2022-12-29T07:12:28;16.50;99.90
17774;DHT22;9011;33.236;-97.118;2022-12-29T07:15:00;16.50;99.90
17774;DHT22;9011;33.236;-97.118;2022-12-29T07:17:29;16.60;99.90
17774;DHT22;9011;33.236;-97.118;2022-12-29T07:19:58;16.60;99.90
17774;DHT22;9011;33.236;-97.118;2022-12-29T07:22:27;16.70;99.90
17774;DHT22;9011;33.236;-97.118;2022-12-29T07:24:55;16.70;99.90
17774;DHT22;9011;33.236;-97.118;2022-12-29T07:27:24;16.80;99.90
17774;DHT22;9011;33.236;-97.118;2022-12-29T07:29:53;16.80;99.90
17774;DHT22;9011;33.236;-97.118;2022-12-29T07:32:23;16.90;99.90
17774;DHT22;9011;33.236;-97.118;2022-12-29T07:34:52;16.90;99.90
17774;DHT22;9011;33.236;-97.118;2022-12-29T07:37:20;17.00;99.90
17774;DHT22;9011;33.236;-97.118;2022-12-29T07:39:49;17.00;99.90
17774;DHT22;9011;33.236;-97.118;2022-12-29T07:42:18;17.00;99.90
17774;DHT22;9011;33.236;-97.118;2022-12-29T07:44:47;17.10;99.90
17774;DHT22;9011;33.236;-97.118;2022-12-29T07:47:16;17.00;99.90
17774;DHT22;9011;33.236;-97.118;2022-12-29T07:49:46;17.10;99.90
17774;DHT22;9011;33.236;-97.118;2022-12-29T07:52:14;17.10;99.90
17774;DHT22;9011;33.236;-97.118;2022-12-29T07:54:43;17.20;99.90
17774;DHT22;9011;33.236;-97.118;2022-12-29T07:57:12;17.20;99.90
17774;DHT22;9011;33.236;-97.118;2022-12-29T07:59:40;17.20;99.90
17774;DHT22;9011;33.236;-97.118;2022-12-29T08:02:10;17.30;99.90
17774;DHT22;9011;33.236;-97.118;2022-12-29T08:04:39;17.30;99.90
17774;DHT22;9011;33.236;-97.118;2022-12-29T08:07:09;17.30;99.90
17774;DHT22;9011;33.236;-97.118;2022-12-29T08:09:38;17.30;99.90
17774;DHT22;9011;33.236;-97.118;2022-12-29T08:12:09;17.30;99.90
17774;DHT22;9011;33.236;-97.118;2022-12-29T08:14:38;17.30;99.90
17774;DHT22;9011;33.236;-97.118;2022-12-29T08:17:07;17.30;99.90
17774;DHT22;9011;33.236;-97.118;2022-12-29T08:19:35;17.30;99.90
17774;DHT22;9011;33.236;-97.118;2022-12-29T08:22:04;17.30;99.90
17774;DHT22;9011;33.236;-97.118;2022-12-29T08:24:34;17.30;99.90
17774;DHT22;9011;33.236;-97.118;2022-12-29T08:27:02;17.20;99.90
17774;DHT22;9011;33.236;-97.118;2022-12-29T08:29:31;17.30;99.90
17774;DHT22;9011;33.236;-97.118;2022-12-29T08:31:59;17.20;99.90
17774;DHT22;9011;33.236;-97.118;2022-12-29T08:34:30;17.20;99.90
17774;DHT22;9011;33.236;-97.118;2022-12-29T08:36:58;17.20;99.90
17774;DHT22;9011;33.236;-97.118;2022-12-29T08:39:27;17.10;99.90
17774;DHT22;9011;33.236;-97.118;2022-12-29T08:41:57;17.10;99.90
17774;DHT22;9011;33.236;-97.118;2022-12-29T08:44:26;17.00;99.90
17774;DHT22;9011;33.236;-97.118;2022-12-29T08:46:54;17.00;99.90
17774;DHT22;9011;33.236;-97.118;2022-12-29T08:49:23;17.00;99.90
17774;DHT22;9011;33.236;-97.118;2022-12-29T08:51:51;17.00;99.90
17774;DHT22;9011;33.236;-97.118;2022-12-29T08:54:20;17.00;99.90
17774;DHT22;9011;33.236;-97.118;2022-12-29T08:56:49;16.90;99.90
17774;DHT22;9011;33.236;-97.118;2022-12-29T08:59:19;16.90;99.90
17774;DHT22;9011;33.236;-97.118;2022-12-29T09:01:48;16.90;99.90
17774;DHT22;9011;33.236;-97.118;2022-12-29T09:04:16;17.00;99.90
17774;DHT22;9011;33.236;-97.118;2022-12-29T09:06:45;16.90;99.90
17774;DHT22;9011;33.236;-97.118;2022-12-29T09:09:14;16.90;99.90
17774;DHT22;9011;33.236;-97.118;2022-12-29T09:11:43;16.90;99.90
17774;DHT22;9011;33.236;-97.118;2022-12-29T09:14:12;17.00;99.90
17774;DHT22;9011;33.236;-97.118;2022-12-29T09:16:42;17.00;99.90
17774;DHT22;9011;33.236;-97.118;2022-12-29T09:19:27;17.10;99.90
17774;DHT22;9011;33.236;-97.118;2022-12-29T09:21:56;17.10;99.90
17774;DHT22;9011;33.236;-97.118;2022-12-29T09:24:25;17.20;99.90
17774;DHT22;9011;33.236;-97.118;2022-12-29T09:26:53;17.20;99.90
17774;DHT22;9011;33.236;-97.118;2022-12-29T09:29:22;17.20;99.90
17774;DHT22;9011;33.236;-97.118;2022-12-29T09:31:52;17.20;99.90
17774;DHT22;9011;33.236;-97.118;2022-12-29T09:34:21;17.20;99.90
17774;DHT22;9011;33.236;-97.118;2022-12-29T09:36:50;17.30;99.90
17774;DHT22;9011;33.236;-97.118;2022-12-29T09:39:18;17.30;99.90
17774;DHT22;9011;33.236;-97.118;2022-12-29T09:41:52;17.30;99.90
17774;DHT22;9011;33.236;-97.118;2022-12-29T09:44:31;17.30;99.90
17774;DHT22;9011;33.236;-97.118;2022-12-29T09:47:11;17.40;99.90
17774;DHT22;9011;33.236;-97.118;2022-12-29T09:49:44;17.40;99.90
17774;DHT22;9011;33.236;-97.118;2022-12-29T09:52:18;17.40;99.90
17774;DHT22;9011;33.236;-97.118;2022-12-29T09:54:52;17.40;99.90
17774;DHT22;9011;33.236;-97.118;2022-12-29T09:57:24;17.40;99.90
17774;DHT22;9011;33.236;-97.118;2022-12-29T09:59:59;17.40;99.90
17774;DHT22;9011;33.236;-97.118;2022-12-29T10:02:38;17.50;99.90
17774;DHT22;9011;33.236;-97.118;2022-12-29T10:05:30;17.50;99.90
17774;DHT22;9011;33.236;-97.118;2022-12-29T10:10:54;17.50;99.90
17774;DHT22;9011;33.236;-97.118;2022-12-29T10:13:32;17.60;99.90
17774;DHT22;9011;33.236;-97.118;2022-12-29T10:16:09;17.60;99.90
17774;DHT22;9011;33.236;-97.118;2022-12-29T10:19:07;17.60;99.90
17774;DHT22;9011;33.236;-97.118;2022-12-29T10:21:49;17.60;99.90
17774;DHT22;9011;33.236;-97.118;2022-12-29T10:24:22;17.60;99.90
17774;DHT22;9011;33.236;-97.118;2022-12-29T10:26:52;17.60;99.90
17774;DHT22;9011;33.236;-97.118;2022-12-29T10:29:22;17.60;99.90
17774;DHT22;9011;33.236;-97.118;2022-12-29T10:31:58;17.60;99.90
17774;DHT22;9011;33.236;-97.118;2022-12-29T10:34:31;17.60;99.90
17774;DHT22;9011;33.236;-97.118;2022-12-29T10:37:05;17.60;99.90
17774;DHT22;9011;33.236;-97.118;2022-12-29T10:39:45;17.60;99.90
17774;DHT22;9011;33.236;-97.118;2022-12-29T10:42:18;17.60;99.90
17774;DHT22;9011;33.236;-97.118;2022-12-29T10:44:49;17.60;99.90
17774;DHT22;9011;33.236;-97.118;2022-12-29T10:47:20;17.60;99.90
17774;DHT22;9011;33.236;-97.118;2022-12-29T10:49:51;17.70;99.90
17774;DHT22;9011;33.236;-97.118;2022-12-29T10:52:21;17.60;99.90
17774;DHT22;9011;33.236;-97.118;2022-12-29T10:54:53;17.60;99.90
17774;DHT22;9011;33.236;-97.118;2022-12-29T10:57:27;17.60;99.90
17774;DHT22;9011;33.236;-97.118;2022-12-29T10:59:57;17.70;99.90
17774;DHT22;9011;33.236;-97.118;2022-12-29T11:02:54;17.60;99.90
17774;DHT22;9011;33.236;-97.118;2022-12-29T11:05:32;17.60;99.90
17774;DHT22;9011;33.236;-97.118;2022-12-29T11:08:03;17.70;99.90
17774;DHT22;9011;33.236;-97.118;2022-12-29T11:10:37;17.60;99.90
17774;DHT22;9011;33.236;-97.118;2022-12-29T11:13:13;17.50;99.90
17774;DHT22;9011;33.236;-97.118;2022-12-29T11:15:43;17.60;99.90
17774;DHT22;9011;33.236;-97.118;2022-12-29T11:18:20;17.50;99.90
17774;DHT22;9011;33.236;-97.118;2022-12-29T11:20:52;17.50;99.90
17774;DHT22;9011;33.236;-97.118;2022-12-29T11:23:29;17.50;99.90
17774;DHT22;9011;33.236;-97.118;2022-12-29T11:26:07;17.40;99.90
17774;DHT22;9011;33.236;-97.118;2022-12-29T11:28:36;17.40;99.90
17774;DHT22;9011;33.236;-97.118;2022-12-29T11:31:06;17.40;99.90
17774;DHT22;9011;33.236;-97.118;2022-12-29T11:33:36;17.40;99.90
17774;DHT22;9011;33.236;-97.118;2022-12-29T11:36:10;17.30;99.90
17774;DHT22;9011;33.236;-97.118;2022-12-29T11:38:42;17.30;99.90
17774;DHT22;9011;33.236;-97.118;2022-12-29T11:41:18;17.30;99.90
17774;DHT22;9011;33.236;-97.118;2022-12-29T11:43:48;17.30;99.90
17774;DHT22;9011;33.236;-97.118;2022-12-29T11:46:20;17.20;99.90
17774;DHT22;9011;33.236;-97.118;2022-12-29T11:48:49;17.20;99.90
17774;DHT22;9011;33.236;-97.118;2022-12-29T11:51:38;17.20;99.90
17774;DHT22;9011;33.236;-97.118;2022-12-29T11:54:09;17.20;99.90
17774;DHT22;9011;33.236;-97.118;2022-12-29T11:56:44;17.10;99.90
17774;DHT22;9011;33.236;-97.118;2022-12-29T11:59:48;17.20;99.90
17774;DHT22;9011;33.236;-97.118;2022-12-29T12:02:32;17.20;99.90
17774;DHT22;9011;33.236;-97.118;2022-12-29T12:05:10;17.10;99.90
17774;DHT22;9011;33.236;-97.118;2022-12-29T12:07:45;17.10;99.90
17774;DHT22;9011;33.236;-97.118;2022-12-29T12:10:19;17.10;99.90
17774;DHT22;9011;33.236;-97.118;2022-12-29T12:12:53;17.10;99.90
17774;DHT22;9011;33.236;-97.118;2022-12-29T12:15:28;17.10;99.90
17774;DHT22;9011;33.236;-97.118;2022-12-29T12:18:04;17.10;99.90
17774;DHT22;9011;33.236;-97.118;2022-12-29T12:20:42;17.10;99.90
17774;DHT22;9011;33.236;-97.118;2022-12-29T12:23:25;17.10;99.90
17774;DHT22;9011;33.236;-97.118;2022-12-29T12:26:00;17.10;99.90
17774;DHT22;9011;33.236;-97.118;2022-12-29T12:28:37;17.00;99.90
17774;DHT22;9011;33.236;-97.118;2022-12-29T12:31:18;17.00;99.90
17774;DHT22;9011;33.236;-97.118;2022-12-29T12:33:55;16.90;99.90
17774;DHT22;9011;33.236;-97.118;2022-12-29T12:36:43;16.90;99.90
17774;DHT22;9011;33.236;-97.118;2022-12-29T12:39:24;16.90;99.90
17774;DHT22;9011;33.236;-97.118;2022-12-29T12:42:02;16.90;99.90
17774;DHT22;9011;33.236;-97.118;2022-12-29T12:44:39;16.90;99.90
17774;DHT22;9011;33.236;-97.118;2022-12-29T12:47:26;16.90;99.90
17774;DHT22;9011;33.236;-97.118;2022-12-29T12:50:18;16.90;99.90
17774;DHT22;9011;33.236;-97.118;2022-12-29T12:56:03;16.80;99.90
17774;DHT22;9011;33.236;-97.118;2022-12-29T12:58:43;16.80;99.90
17774;DHT22;9011;33.236;-97.118;2022-12-29T13:01:32;16.70;99.90
17774;DHT22;9011;33.236;-97.118;2022-12-29T13:04:19;16.70;99.90
17774;DHT22;9011;33.236;-97.118;2022-12-29T13:06:58;16.70;99.90
17774;DHT22;9011;33.236;-97.118;2022-12-29T13:09:43;16.70;99.90
17774;DHT22;9011;33.236;-97.118;2022-12-29T13:12:25;16.70;99.90
17774;DHT22;9011;33.236;-97.118;2022-12-29T13:15:07;16.70;99.90
17774;DHT22;9011;33.236;-97.118;2022-12-29T13:17:40;16.70;99.90
17774;DHT22;9011;33.236;-97.118;2022-12-29T13:20:21;16.70;99.90
17774;DHT22;9011;33.236;-97.118;2022-12-29T13:22:55;16.70;99.90
17774;DHT22;9011;33.236;-97.118;2022-12-29T13:25:33;16.70;99.90
17774;DHT22;9011;33.236;-97.118;2022-12-29T13:28:09;16.80;99.90
17774;DHT22;9011;33.236;-97.118;2022-12-29T13:30:44;16.70;99.90
17774;DHT22;9011;33.236;-97.118;2022-12-29T13:33:20;16.70;99.90
17774;DHT22;9011;33.236;-97.118;2022-12-29T13:35:56;16.70;99.90
17774;DHT22;9011;33.236;-97.118;2022-12-29T13:38:32;16.70;99.90
17774;DHT22;9011;33.236;-97.118;2022-12-29T13:41:04;16.60;99.90
17774;DHT22;9011;33.236;-97.118;2022-12-29T13:43:39;16.70;99.90
17774;DHT22;9011;33.236;-97.118;2022-12-29T13:46:12;16.70;99.90
17774;DHT22;9011;33.236;-97.118;2022-12-29T13:48:44;16.60;99.90
17774;DHT22;9011;33.236;-97.118;2022-12-29T13:51:15;16.70;99.90
17774;DHT22;9011;33.236;-97.118;2022-12-29T13:53:59;16.70;99.90
17774;DHT22;9011;33.236;-97.118;2022-12-29T13:56:34;16.70;99.90
17774;DHT22;9011;33.236;-97.118;2022-12-29T13:59:12;16.60;99.90
17774;DHT22;9011;33.236;-97.118;2022-12-29T14:01:49;16.70;99.90
17774;DHT22;9011;33.236;-97.118;2022-12-29T14:04:23;16.60;99.90
17774;DHT22;9011;33.236;-97.118;2022-12-29T14:07:03;16.70;99.90
17774;DHT22;9011;33.236;-97.118;2022-12-29T14:09:47;16.70;99.90
17774;DHT22;9011;33.236;-97.118;2022-12-29T14:12:36;16.70;99.90
17774;DHT22;9011;33.236;-97.118;2022-12-29T14:15:20;16.60;99.90
17774;DHT22;9011;33.236;-97.118;2022-12-29T14:18:04;16.60;99.90
17774;DHT22;9011;33.236;-97.118;2022-12-29T14:20:33;16.70;99.90
17774;DHT22;9011;33.236;-97.118;2022-12-29T14:23:16;16.60;99.90
17774;DHT22;9011;33.236;-97.118;2022-12-29T14:25:58;16.70;99.90
17774;DHT22;9011;33.236;-97.118;2022-12-29T14:28:28;16.70;99.90
17774;DHT22;9011;33.236;-97.118;2022-12-29T14:31:00;16.80;99.90
17774;DHT22;9011;33.236;-97.118;2022-12-29T14:33:30;16.80;99.90
17774;DHT22;9011;33.236;-97.118;2022-12-29T14:36:20;16.80;99.90
17774;DHT22;9011;33.236;-97.118;2022-12-29T14:38:49;16.80;99.90
17774;DHT22;9011;33.236;-97.118;2022-12-29T14:41:33;16.80;99.90
17774;DHT22;9011;33.236;-97.118;2022-12-29T14:44:15;16.80;99.90
17774;DHT22;9011;33.236;-97.118;2022-12-29T14:46:54;16.80;99.90
17774;DHT22;9011;33.236;-97.118;2022-12-29T14:49:25;16.80;99.90
17774;DHT22;9011;33.236;-97.118;2022-12-29T14:52:04;16.90;99.90
17774;DHT22;9011;33.236;-97.118;2022-12-29T14:54:54;16.90;99.90
17774;DHT22;9011;33.236;-97.118;2022-12-29T14:57:27;17.00;99.90
17774;DHT22;9011;33.236;-97.118;2022-12-29T15:00:01;17.00;99.90
17774;DHT22;9011;33.236;-97.118;2022-12-29T15:02:38;16.90;99.90
17774;DHT22;9011;33.236;-97.118;2022-12-29T15:05:26;17.00;99.90
17774;DHT22;9011;33.236;-97.118;2022-12-29T15:07:56;17.10;99.90
17774;DHT22;9011;33.236;-97.118;2022-12-29T15:10:30;17.10;99.90
17774;DHT22;9011;33.236;-97.118;2022-12-29T15:13:04;17.20;99.90
17774;DHT22;9011;33.236;-97.118;2022-12-29T15:15:38;17.20;99.90
17774;DHT22;9011;33.236;-97.118;2022-12-29T15:18:26;17.30;99.90
17774;DHT22;9011;33.236;-97.118;2022-12-29T15:20:57;17.30;99.90
17774;DHT22;9011;33.236;-97.118;2022-12-29T15:23:27;17.40;99.90
17774;DHT22;9011;33.236;-97.118;2022-12-29T15:25:58;17.40;99.90
17774;DHT22;9011;33.236;-97.118;2022-12-29T15:28:30;17.40;99.90
17774;DHT22;9011;33.236;-97.118;2022-12-29T15:31:08;17.50;99.90
17774;DHT22;9011;33.236;-97.118;2022-12-29T15:33:42;17.50;99.90
17774;DHT22;9011;33.236;-97.118;2022-12-29T15:36:13;17.40;99.90
17774;DHT22;9011;33.236;-97.118;2022-12-29T15:38:42;17.50;99.90
17774;DHT22;9011;33.236;-97.118;2022-12-29T15:41:24;17.60;99.90
17774;DHT22;9011;33.236;-97.118;2022-12-29T15:44:10;17.70;99.90
17774;DHT22;9011;33.236;-97.118;2022-12-29T15:46:43;17.70;99.90
17774;DHT22;9011;33.236;-97.118;2022-12-29T15:49:14;17.70;99.90
17774;DHT22;9011;33.236;-97.118;2022-12-29T15:51:44;17.70;99.90
17774;DHT22;9011;33.236;-97.118;2022-12-29T15:54:16;17.70;99.90
17774;DHT22;9011;33.236;-97.118;2022-12-29T15:56:46;17.80;99.90
17774;DHT22;9011;33.236;-97.118;2022-12-29T15:59:26;17.80;99.90
17774;DHT22;9011;33.236;-97.118;2022-12-29T16:01:56;17.90;99.90
17774;DHT22;9011;33.236;-97.118;2022-12-29T16:04:29;18.00;99.90